createdAt,value
2018-06-16T00:00:00.486Z,40.57
2018-06-16T00:02:29.740Z,43.87
2018-06-16T00:04:59.711Z,47.27
2018-06-16T00:07:29.018Z,36.30
2018-06-16T00:09:58.318Z,46.93
2018-06-16T00:12:27.702Z,42.93
2018-06-16T00:14:56.951Z,42.00
2018-06-16T00:17:26.258Z,44.47
2018-06-16T00:19:55.598Z,43.30
2018-06-16T00:22:24.411Z,48.10
2018-06-16T00:24:57.786Z,40.37
2018-06-16T00:27:27.701Z,42.40
2018-06-16T00:29:57.210Z,50.07
2018-06-16T00:32:27.011Z,46.67
2018-06-16T00:34:55.767Z,48.77
2018-06-16T00:37:25.180Z,42.23
2018-06-16T00:39:54.520Z,46.20
2018-06-16T00:42:23.779Z,41.87
2018-06-16T00:44:53.050Z,45.40
2018-06-16T00:47:22.332Z,45.27
2018-06-16T00:49:51.611Z,50.27
2018-06-16T00:52:20.909Z,48.60
2018-06-16T00:54:50.252Z,56.23
2018-06-16T00:57:30.282Z,62.27
2018-06-16T00:59:59.592Z,48.33
2018-06-16T01:02:31.846Z,49.67
2018-06-16T01:05:01.197Z,52.23
2018-06-16T01:07:30.472Z,44.27
2018-06-16T01:09:59.772Z,40.93
2018-06-16T01:12:29.116Z,43.47
2018-06-16T01:14:57.860Z,43.43
2018-06-16T01:17:27.157Z,47.27
2018-06-16T01:19:56.600Z,42.23
2018-06-16T01:22:25.844Z,45.67
2018-06-16T01:24:55.169Z,54.00
2018-06-16T01:27:24.460Z,59.50
2018-06-16T01:29:53.762Z,52.20
2018-06-16T01:32:22.995Z,52.20
2018-06-16T01:34:52.259Z,50.93
2018-06-16T01:37:21.557Z,53.13
2018-06-16T01:39:50.811Z,53.20
2018-06-16T01:42:19.624Z,54.40
2018-06-16T01:44:48.889Z,48.83
2018-06-16T01:47:18.125Z,54.73
2018-06-16T01:49:47.400Z,57.30
2018-06-16T01:52:16.148Z,50.40
2018-06-16T01:54:45.432Z,50.83
2018-06-16T01:57:14.848Z,50.57
2018-06-16T01:59:44.114Z,41.90
2018-06-16T02:02:13.380Z,46.50
2018-06-16T02:04:42.176Z,50.80
2018-06-16T02:07:10.919Z,55.80
2018-06-16T02:09:40.207Z,60.10
2018-06-16T02:12:09.502Z,40.83
2018-06-16T02:14:38.786Z,43.00
2018-06-16T02:17:08.039Z,51.77
2018-06-16T02:19:37.353Z,48.90
2018-06-16T02:22:06.094Z,42.30
2018-06-16T02:24:35.427Z,42.23
2018-06-16T02:27:04.720Z,43.03
2018-06-16T02:29:33.991Z,50.63
2018-06-16T02:32:03.276Z,41.43
2018-06-16T02:34:32.574Z,42.00
2018-06-16T02:37:01.849Z,37.60
2018-06-16T02:39:31.124Z,37.30
2018-06-16T02:42:00.483Z,35.10
2018-06-16T02:44:29.783Z,39.40
2018-06-16T02:46:59.059Z,44.73
2018-06-16T02:49:28.327Z,44.30
2018-06-16T02:51:57.611Z,41.23
2018-06-16T02:54:26.879Z,42.93
2018-06-16T02:56:56.169Z,46.17
2018-06-16T02:59:25.457Z,40.17
2018-06-16T03:01:54.753Z,42.47
2018-06-16T03:04:24.044Z,37.20
2018-06-16T03:06:53.389Z,33.43
2018-06-16T03:09:22.648Z,37.33
2018-06-16T03:11:51.932Z,37.20
2018-06-16T03:14:20.687Z,33.23
2018-06-16T03:16:49.962Z,44.43
2018-06-16T03:19:19.254Z,32.30
2018-06-16T03:21:48.664Z,34.07
2018-06-16T03:24:17.960Z,40.23
2018-06-16T03:26:47.284Z,41.50
2018-06-16T03:29:16.575Z,40.77
2018-06-16T03:31:45.930Z,39.90
2018-06-16T03:34:15.211Z,38.83
2018-06-16T03:36:44.540Z,45.30
2018-06-16T03:39:13.810Z,48.87
2018-06-16T03:41:43.157Z,49.50
2018-06-16T03:44:12.400Z,45.37
2018-06-16T03:46:41.656Z,55.40
2018-06-16T03:49:10.947Z,57.33
2018-06-16T03:51:40.199Z,65.93
2018-06-16T03:54:09.537Z,62.23
2018-06-16T03:56:38.841Z,64.40
2018-06-16T03:59:08.096Z,61.80
2018-06-16T04:01:37.351Z,59.57
2018-06-16T04:04:06.667Z,62.50
2018-06-16T04:06:36.003Z,51.37
2018-06-16T04:09:07.025Z,45.47
2018-06-16T04:11:36.315Z,43.60
2018-06-16T04:14:05.658Z,33.03
2018-06-16T04:16:34.455Z,26.97
2018-06-16T04:19:03.284Z,23.93
2018-06-16T04:21:32.504Z,27.00
2018-06-16T04:24:01.843Z,28.80
2018-06-16T04:26:31.100Z,30.50
2018-06-16T04:29:00.366Z,21.00
2018-06-16T04:31:29.636Z,23.53
2018-06-16T04:33:58.392Z,22.30
2018-06-16T04:36:27.826Z,21.67
2018-06-16T04:38:56.727Z,22.58
2018-06-16T04:41:26.092Z,19.03
2018-06-16T04:43:55.421Z,20.00
2018-06-16T04:46:24.721Z,30.50
2018-06-16T04:48:53.477Z,21.53
2018-06-16T04:51:22.735Z,20.17
2018-06-16T04:53:52.079Z,27.40
2018-06-16T04:56:21.357Z,21.43
2018-06-16T04:58:50.594Z,18.40
2018-06-16T05:01:19.806Z,18.50
2018-06-16T05:03:49.087Z,16.67
2018-06-16T05:06:18.325Z,20.23
2018-06-16T05:08:47.592Z,17.00
2018-06-16T05:11:16.878Z,19.80
2018-06-16T05:13:46.173Z,19.27
2018-06-16T05:16:15.559Z,23.03
2018-06-16T05:18:44.830Z,15.80
2018-06-16T05:21:14.059Z,25.53
2018-06-16T05:23:43.406Z,16.63
2018-06-16T05:26:12.676Z,21.50
2018-06-16T05:28:41.924Z,18.70
2018-06-16T05:31:11.197Z,13.13
2018-06-16T05:33:39.943Z,13.60
2018-06-16T05:36:09.198Z,16.80
2018-06-16T05:38:38.458Z,10.30
2018-06-16T05:41:07.709Z,12.90
2018-06-16T05:43:36.991Z,17.83
2018-06-16T05:46:06.347Z,12.20
2018-06-16T05:48:35.648Z,16.83
2018-06-16T05:51:04.891Z,10.90
2018-06-16T05:53:34.208Z,10.87
2018-06-16T05:56:03.467Z,9.97
2018-06-16T05:58:32.711Z,9.40
2018-06-16T06:01:02.013Z,12.23
2018-06-16T06:03:31.353Z,8.90
2018-06-16T06:06:00.628Z,9.87
2018-06-16T06:08:29.996Z,10.33
2018-06-16T06:10:59.277Z,10.60
2018-06-16T06:13:28.007Z,9.50
2018-06-16T06:15:57.285Z,8.00
2018-06-16T06:18:26.565Z,10.97
2018-06-16T06:20:55.376Z,11.83
2018-06-16T06:23:24.684Z,15.13
2018-06-16T06:25:53.923Z,9.93
2018-06-16T06:28:23.179Z,10.90
2018-06-16T06:30:52.457Z,12.40
2018-06-16T06:33:21.168Z,9.23
2018-06-16T06:35:50.447Z,21.27
2018-06-16T06:38:19.710Z,8.60
2018-06-16T06:40:48.951Z,9.90
2018-06-16T06:43:18.220Z,8.90
2018-06-16T06:45:47.491Z,7.80
2018-06-16T06:48:16.764Z,9.10
2018-06-16T06:50:46.026Z,7.73
2018-06-16T06:53:15.283Z,7.10
2018-06-16T06:55:44.537Z,7.37
2018-06-16T06:58:13.800Z,10.67
2018-06-16T07:00:43.097Z,13.40
2018-06-16T07:03:12.447Z,7.80
2018-06-16T07:05:41.698Z,16.60
2018-06-16T07:08:10.942Z,7.33
2018-06-16T07:10:40.237Z,14.97
2018-06-16T07:13:10.573Z,5.20
2018-06-16T07:15:39.783Z,5.83
2018-06-16T07:18:09.018Z,8.63
2018-06-16T07:20:38.387Z,7.93
2018-06-16T07:23:08.572Z,6.47
2018-06-16T07:25:37.937Z,5.80
2018-06-16T07:28:07.392Z,7.97
2018-06-16T07:30:36.804Z,8.47
2018-06-16T07:33:06.200Z,8.70
2018-06-16T07:35:35.488Z,4.67
2018-06-16T07:38:04.844Z,5.83
2018-06-16T07:40:34.093Z,6.70
2018-06-16T07:43:03.424Z,6.03
2018-06-16T07:45:32.673Z,9.00
2018-06-16T07:48:01.375Z,5.50
2018-06-16T07:50:30.657Z,11.10
2018-06-16T07:52:59.961Z,9.37
2018-06-16T07:55:29.216Z,8.47
2018-06-16T07:57:58.827Z,6.87
2018-06-16T08:00:28.156Z,6.23
2018-06-16T08:02:57.492Z,7.60
2018-06-16T08:05:26.776Z,7.20
2018-06-16T08:07:55.720Z,19.23
2018-06-16T08:10:25.053Z,7.47
2018-06-16T08:12:53.874Z,14.17
2018-06-16T08:15:23.125Z,6.90
2018-06-16T08:17:52.498Z,5.60
2018-06-16T08:20:21.801Z,6.53
2018-06-16T08:22:51.084Z,5.50
2018-06-16T08:25:20.339Z,10.03
2018-06-16T08:27:49.600Z,8.20
2018-06-16T08:30:18.856Z,9.57
2018-06-16T08:32:48.186Z,6.40
2018-06-16T08:35:17.553Z,20.33
2018-06-16T08:37:46.717Z,12.07
2018-06-16T08:40:16.036Z,8.87
2018-06-16T08:42:45.324Z,12.90
2018-06-16T08:45:15.158Z,11.87
2018-06-16T08:47:43.940Z,4.53
2018-06-16T08:50:13.283Z,5.90
2018-06-16T08:52:42.897Z,5.30
2018-06-16T08:55:12.272Z,7.53
2018-06-16T08:57:41.578Z,3.27
2018-06-16T09:00:10.865Z,4.90
2018-06-16T09:02:39.595Z,9.00
2018-06-16T09:05:09.136Z,10.43
2018-06-16T09:07:38.473Z,16.80
2018-06-16T09:10:08.167Z,9.87
2018-06-16T09:12:37.022Z,10.47
2018-06-16T09:15:06.385Z,16.53
2018-06-16T09:17:35.690Z,28.43
2018-06-16T09:20:06.224Z,3.20
2018-06-16T09:22:35.656Z,5.80
2018-06-16T09:25:05.064Z,7.37
2018-06-16T09:27:34.397Z,4.67
2018-06-16T09:30:03.699Z,6.70
2018-06-16T09:32:32.417Z,12.17
2018-06-16T09:35:01.769Z,6.20
2018-06-16T09:37:30.482Z,5.47
2018-06-16T09:39:59.856Z,2.53
2018-06-16T09:42:28.675Z,6.47
2018-06-16T09:44:58.029Z,2.77
2018-06-16T09:47:27.841Z,4.60
2018-06-16T09:49:57.049Z,9.50
2018-06-16T09:52:26.336Z,5.17
2018-06-16T09:54:55.641Z,4.60
2018-06-16T09:57:24.892Z,6.67
2018-06-16T09:59:54.267Z,13.23
2018-06-16T10:02:22.958Z,18.23
2018-06-16T10:04:52.199Z,14.50
2018-06-16T10:07:21.494Z,6.73
2018-06-16T10:09:50.750Z,6.60
2018-06-16T10:12:20.026Z,11.17
2018-06-16T10:14:49.354Z,17.07
2018-06-16T10:17:18.565Z,12.47
2018-06-16T10:19:47.899Z,6.40
2018-06-16T10:22:17.300Z,5.23
2018-06-16T10:24:46.653Z,10.38
2018-06-16T10:27:16.114Z,4.60
2018-06-16T10:29:45.462Z,4.42
2018-06-16T10:32:14.954Z,3.90
2018-06-16T10:34:43.772Z,7.70
2018-06-16T10:37:13.265Z,8.50
2018-06-16T10:39:42.695Z,10.50
2018-06-16T10:42:11.949Z,13.57
2018-06-16T10:44:41.188Z,4.95
2018-06-16T10:47:10.584Z,6.03
2018-06-16T10:49:39.815Z,4.30
2018-06-16T10:52:09.060Z,3.47
2018-06-16T10:54:38.686Z,5.83
2018-06-16T10:57:07.951Z,5.57
2018-06-16T10:59:37.243Z,4.30
2018-06-16T11:02:06.572Z,4.93
2018-06-16T11:04:35.918Z,3.30
2018-06-16T11:07:05.218Z,2.73
2018-06-16T11:09:35.919Z,1.70
2018-06-16T11:12:05.655Z,66.63
2018-06-16T11:14:34.994Z,34.00
2018-06-16T11:17:04.234Z,6.70
2018-06-16T11:19:33.513Z,6.23
2018-06-16T11:22:03.101Z,3.57
2018-06-16T11:24:31.895Z,7.77
2018-06-16T11:27:00.856Z,5.30
2018-06-16T11:29:30.204Z,3.23
2018-06-16T11:31:59.650Z,2.93
2018-06-16T11:34:29.079Z,3.40
2018-06-16T11:36:58.565Z,5.43
2018-06-16T11:39:27.892Z,7.20
2018-06-16T11:41:56.618Z,4.50
2018-06-16T11:44:25.885Z,3.40
2018-06-16T11:46:54.701Z,3.53
2018-06-16T11:49:24.294Z,2.93
2018-06-16T11:51:53.799Z,11.00
2018-06-16T11:54:23.047Z,15.27
2018-06-16T11:56:52.603Z,6.60
2018-06-16T11:59:21.898Z,8.93
2018-06-16T12:01:51.367Z,13.40
2018-06-16T12:04:20.763Z,6.23
2018-06-16T12:06:50.126Z,13.07
2018-06-16T12:09:19.494Z,5.20
2018-06-16T12:11:48.788Z,6.83
2018-06-16T12:14:19.126Z,6.67
2018-06-16T12:16:48.380Z,5.50
2018-06-16T12:19:17.628Z,4.33
2018-06-16T12:21:46.892Z,4.43
2018-06-16T12:24:16.102Z,3.80
2018-06-16T12:26:45.397Z,5.47
2018-06-16T12:29:14.636Z,7.20
2018-06-16T12:31:43.876Z,10.47
2018-06-16T12:34:13.196Z,5.57
2018-06-16T12:36:42.480Z,6.10
2018-06-16T12:39:12.351Z,3.50
2018-06-16T12:41:41.585Z,3.20
2018-06-16T12:44:10.872Z,3.70
2018-06-16T12:46:40.155Z,4.07
2018-06-16T12:49:09.379Z,2.73
2018-06-16T12:51:38.757Z,7.23
2018-06-16T12:54:08.021Z,4.30
2018-06-16T12:56:36.785Z,5.57
2018-06-16T12:59:06.076Z,3.53
2018-06-16T13:01:35.278Z,5.40
2018-06-16T13:04:04.521Z,5.37
2018-06-16T13:06:33.788Z,8.73
2018-06-16T13:09:03.199Z,12.83
2018-06-16T13:11:32.462Z,6.00
2018-06-16T13:14:01.884Z,11.90
2018-06-16T13:16:31.184Z,8.63
2018-06-16T13:19:01.030Z,3.30
2018-06-16T13:21:30.314Z,3.53
2018-06-16T13:23:59.727Z,6.10
2018-06-16T13:26:28.422Z,5.30
2018-06-16T13:28:57.808Z,5.47
2018-06-16T13:31:27.242Z,5.10
2018-06-16T13:33:57.315Z,5.83
2018-06-16T13:36:27.519Z,10.73
2018-06-16T13:38:56.946Z,7.63
2018-06-16T13:41:26.307Z,6.20
2018-06-16T13:43:55.853Z,5.43
2018-06-16T13:46:25.346Z,8.30
2018-06-16T13:48:54.608Z,4.57
2018-06-16T13:51:24.054Z,3.10
2018-06-16T13:53:53.329Z,6.47
2018-06-16T13:56:22.581Z,4.27
2018-06-16T13:58:51.874Z,5.63
2018-06-16T14:01:20.590Z,2.97
2018-06-16T14:03:50.814Z,4.30
2018-06-16T14:06:20.117Z,2.87
2018-06-16T14:08:49.330Z,3.30
2018-06-16T14:11:18.547Z,5.80
2018-06-16T14:13:47.995Z,7.50
2018-06-16T14:16:17.286Z,3.93
2018-06-16T14:18:46.060Z,3.57
2018-06-16T14:21:15.348Z,5.00
2018-06-16T14:23:44.643Z,4.43
2018-06-16T14:26:13.923Z,4.00
2018-06-16T14:28:43.220Z,6.00
2018-06-16T14:31:12.723Z,5.47
2018-06-16T14:33:41.988Z,13.47
2018-06-16T14:36:11.240Z,5.07
2018-06-16T14:38:40.464Z,5.17
2018-06-16T14:41:09.170Z,9.73
2018-06-16T14:43:38.631Z,2.93
2018-06-16T14:46:07.898Z,6.80
2018-06-16T14:48:37.267Z,9.47
2018-06-16T14:51:06.835Z,3.57
2018-06-16T14:53:37.187Z,5.93
2018-06-16T14:56:06.141Z,5.20
2018-06-16T14:58:35.539Z,6.33
2018-06-16T15:01:04.788Z,3.70
2018-06-16T15:03:33.529Z,9.33
2018-06-16T15:06:02.775Z,12.07
2018-06-16T15:08:32.170Z,7.53
2018-06-16T15:11:01.403Z,6.53
2018-06-16T15:13:30.836Z,3.30
2018-06-16T15:16:00.259Z,3.80
2018-06-16T15:18:29.740Z,8.00
2018-06-16T15:20:59.158Z,4.70
2018-06-16T15:23:28.598Z,8.93
2018-06-16T15:25:58.017Z,10.37
2018-06-16T15:28:27.467Z,7.53
2018-06-16T15:30:56.922Z,3.70
2018-06-16T15:33:26.173Z,9.10
2018-06-16T15:35:55.502Z,4.23
2018-06-16T15:38:24.800Z,4.83
2018-06-16T15:40:53.550Z,5.10
2018-06-16T15:43:22.893Z,6.20
2018-06-16T15:45:52.267Z,3.70
2018-06-16T15:48:21.603Z,15.53
2018-06-16T15:50:50.896Z,8.07
2018-06-16T15:53:20.409Z,11.37
2018-06-16T15:55:49.649Z,4.73
2018-06-16T15:58:18.942Z,6.97
2018-06-16T16:00:48.334Z,8.87
2018-06-16T16:03:17.611Z,7.20
2018-06-16T16:05:46.915Z,5.03
2018-06-16T16:08:16.194Z,5.33
2018-06-16T16:10:44.919Z,7.20
2018-06-16T16:13:14.446Z,4.60
2018-06-16T16:15:43.753Z,5.60
2018-06-16T16:18:13.164Z,9.63
2018-06-16T16:20:43.484Z,6.60
2018-06-16T16:23:13.648Z,7.93
2018-06-16T16:25:43.107Z,7.00
2018-06-16T16:28:13.038Z,9.30
2018-06-16T16:30:42.315Z,4.80
2018-06-16T16:33:11.575Z,14.93
2018-06-16T16:35:40.805Z,11.23
2018-06-16T16:38:10.037Z,5.60
2018-06-16T16:40:39.309Z,7.70
2018-06-16T16:43:08.569Z,5.13
2018-06-16T16:45:37.848Z,5.47
2018-06-16T16:48:06.624Z,5.30
2018-06-16T16:50:35.396Z,6.20
2018-06-16T16:53:04.682Z,5.23
2018-06-16T16:55:33.983Z,2.53
2018-06-16T16:58:03.195Z,11.60
2018-06-16T17:00:32.609Z,7.20
2018-06-16T17:03:01.949Z,6.93
2018-06-16T17:05:31.222Z,7.03
2018-06-16T17:08:00.460Z,6.22
2018-06-16T17:10:29.720Z,2.90
2018-06-16T17:12:58.994Z,7.93
2018-06-16T17:15:28.317Z,4.43
2018-06-16T17:17:57.653Z,3.30
2018-06-16T17:20:26.846Z,5.07
2018-06-16T17:22:56.821Z,8.20
2018-06-16T17:25:25.635Z,6.70
2018-06-16T17:27:54.881Z,5.70
2018-06-16T17:30:24.194Z,7.53
2018-06-16T17:32:53.547Z,5.00
2018-06-16T17:35:23.216Z,5.33
2018-06-16T17:37:52.858Z,4.20
2018-06-16T17:40:22.148Z,3.60
2018-06-16T17:42:51.373Z,5.33
2018-06-16T17:45:20.611Z,12.23
2018-06-16T17:47:49.890Z,4.27
2018-06-16T17:50:19.290Z,4.90
2018-06-16T17:52:48.747Z,9.17
2018-06-16T17:55:18.102Z,6.23
2018-06-16T17:57:47.494Z,9.20
2018-06-16T18:00:17.565Z,7.20
2018-06-16T18:02:47.485Z,5.13
2018-06-16T18:05:16.810Z,4.50
2018-06-16T18:07:46.069Z,8.40
2018-06-16T18:10:14.906Z,23.43
2018-06-16T18:12:44.344Z,2.65
2018-06-16T18:15:13.768Z,8.70
2018-06-16T18:17:43.132Z,4.47
2018-06-16T18:20:12.454Z,10.40
2018-06-16T18:22:41.980Z,9.87
2018-06-16T18:25:11.251Z,10.47
2018-06-16T18:27:40.680Z,12.20
2018-06-16T18:30:09.948Z,12.63
2018-06-16T18:32:39.274Z,7.00
2018-06-16T18:35:07.994Z,6.50
2018-06-16T18:37:37.418Z,11.60
2018-06-16T18:40:07.478Z,32.87
2018-06-16T18:42:36.280Z,14.17
2018-06-16T18:45:05.694Z,14.07
2018-06-16T18:47:34.966Z,14.63
2018-06-16T18:50:03.893Z,10.40
2018-06-16T18:52:33.415Z,15.90
2018-06-16T18:55:02.664Z,7.33
2018-06-16T18:57:31.386Z,6.85
2018-06-16T19:00:01.422Z,11.63
2018-06-16T19:02:30.698Z,9.95
2018-06-16T19:05:00.071Z,12.07
2018-06-16T19:07:28.872Z,14.28
2018-06-16T19:09:58.000Z,8.30
2018-06-16T19:12:27.237Z,6.30
2018-06-16T19:14:56.506Z,15.60
2018-06-16T19:17:25.875Z,5.90
2018-06-16T19:19:55.182Z,21.90
2018-06-16T19:22:24.591Z,20.10
2018-06-16T19:24:54.119Z,20.40
2018-06-16T19:27:23.480Z,20.77
2018-06-16T19:29:52.800Z,13.07
2018-06-16T19:32:22.070Z,13.28
2018-06-16T19:34:51.348Z,11.67
2018-06-16T19:37:20.748Z,11.57
2018-06-16T19:39:50.090Z,13.57
2018-06-16T19:42:19.346Z,7.20
2018-06-16T19:44:48.617Z,8.43
2018-06-16T19:47:17.869Z,12.37
2018-06-16T19:49:46.660Z,6.47
2018-06-16T19:52:15.889Z,9.57
2018-06-16T19:54:45.143Z,10.57
2018-06-16T19:57:14.405Z,10.97
2018-06-16T19:59:43.672Z,10.80
2018-06-16T20:02:13.021Z,12.57
2018-06-16T20:04:42.317Z,14.70
2018-06-16T20:07:11.581Z,14.07
2018-06-16T20:09:40.858Z,20.53
2018-06-16T20:12:09.590Z,11.03
2018-06-16T20:14:38.850Z,11.33
2018-06-16T20:17:08.115Z,9.47
2018-06-16T20:19:37.437Z,12.20
2018-06-16T20:22:06.172Z,6.03
2018-06-16T20:24:35.467Z,12.63
2018-06-16T20:27:04.886Z,10.67
2018-06-16T20:29:34.290Z,20.17
2018-06-16T20:32:03.599Z,16.10
2018-06-16T20:34:32.343Z,12.07
2018-06-16T20:37:01.629Z,17.67
2018-06-16T20:39:32.208Z,39.83
2018-06-16T20:42:01.745Z,30.03
2018-06-16T20:44:31.017Z,11.40
2018-06-16T20:47:00.265Z,7.80
2018-06-16T20:49:29.688Z,15.77
2018-06-16T20:51:59.353Z,6.67
2018-06-16T20:54:28.409Z,11.20
2018-06-16T20:56:58.006Z,7.40
2018-06-16T20:59:27.887Z,7.40
2018-06-16T21:01:56.712Z,4.50
2018-06-16T21:04:26.095Z,4.37
2018-06-16T21:06:55.366Z,10.93
2018-06-16T21:09:24.085Z,16.60
2018-06-16T21:11:53.392Z,7.87
2018-06-16T21:14:22.708Z,7.13
2018-06-16T21:16:52.020Z,4.80
2018-06-16T21:19:21.429Z,5.77
2018-06-16T21:21:50.702Z,5.57
2018-06-16T21:24:20.009Z,7.67
2018-06-16T21:26:49.308Z,4.53
2018-06-16T21:29:18.573Z,2.87
2018-06-16T21:31:47.856Z,8.63
2018-06-16T21:34:17.175Z,5.57
2018-06-16T21:36:46.463Z,7.90
2018-06-16T21:39:15.722Z,13.33
2018-06-16T21:41:45.037Z,4.90
2018-06-16T21:44:14.435Z,5.27
2018-06-16T21:46:44.117Z,5.80
2018-06-16T21:49:13.515Z,4.43
2018-06-16T21:51:42.962Z,5.57
2018-06-16T21:54:12.275Z,7.80
2018-06-16T21:56:41.626Z,5.87
2018-06-16T21:59:10.901Z,7.87
2018-06-16T22:01:40.193Z,8.60
2018-06-16T22:04:09.455Z,8.23
2018-06-16T22:06:38.679Z,11.30
2018-06-16T22:09:10.112Z,10.13
2018-06-16T22:11:38.835Z,7.27
2018-06-16T22:14:08.292Z,7.13
2018-06-16T22:16:37.565Z,4.63
2018-06-16T22:19:06.850Z,6.70
2018-06-16T22:21:36.128Z,5.67
2018-06-16T22:24:05.540Z,10.10
2018-06-16T22:26:35.309Z,4.30
2018-06-16T22:29:04.059Z,5.83
2018-06-16T22:31:34.156Z,5.20
2018-06-16T22:34:03.732Z,9.13
2018-06-16T22:36:32.676Z,6.83
2018-06-16T22:39:02.101Z,11.50
2018-06-16T22:41:31.481Z,30.93
2018-06-16T22:44:00.828Z,24.33
2018-06-16T22:46:32.676Z,19.73
2018-06-16T22:49:02.070Z,9.33
2018-06-16T22:51:31.303Z,15.93
2018-06-16T22:54:00.632Z,14.00
2018-06-16T22:56:29.970Z,13.43
2018-06-16T22:58:59.339Z,10.10
2018-06-16T23:01:28.743Z,6.90
2018-06-16T23:03:58.105Z,9.93
2018-06-16T23:06:27.333Z,25.00
2018-06-16T23:08:56.672Z,17.83
2018-06-16T23:11:25.944Z,17.47
2018-06-16T23:13:55.253Z,6.90
2018-06-16T23:16:24.559Z,15.97
2018-06-16T23:18:53.805Z,13.53
2018-06-16T23:21:23.076Z,4.87
2018-06-16T23:23:52.346Z,7.00
2018-06-16T23:26:21.701Z,6.10
2018-06-16T23:28:50.970Z,8.57
2018-06-16T23:31:20.210Z,23.20
2018-06-16T23:33:50.346Z,20.90
2018-06-16T23:36:19.573Z,9.73
2018-06-16T23:38:48.868Z,11.53
2018-06-16T23:41:18.093Z,7.10
2018-06-16T23:43:47.692Z,11.00
2018-06-16T23:46:16.920Z,7.70
2018-06-16T23:48:45.608Z,7.40
2018-06-16T23:51:14.845Z,18.30
2018-06-16T23:53:44.152Z,7.00
2018-06-16T23:56:13.435Z,8.40
2018-06-16T23:58:42.721Z,16.63
